Time;durP1;ratioP1;P1;durP2;ratioP2;P2;SDS_P1;SDS_P2;PMS_P1;PMS_P2;Temp;Humidity;BMP_temperature;BMP_pressure;BME280_temperature;BME280_humidity;BME280_pressure;Samples;Min_cycle;Max_cycle;Signal;HPM_P1;HPM_P2
2024/01/29 00:00:16;;;;;;;9.95;5.60;;;;;;;3.25;100.00;102435.06;5071739;28;20123;-74
2024/01/29 00:02:43;;;;;;;9.38;5.22;;;;;;;3.22;100.00;102422.06;5070397;28;20125;-74
2024/01/29 00:05:09;;;;;;;14.82;6.28;;;;;;;3.22;100.00;102425.56;5053917;28;20396;-74
2024/01/29 00:07:34;;;;;;;12.80;5.78;;;;;;;3.22;100.00;102428.22;5071688;28;20028;-73
2024/01/29 00:10:00;;;;;;;10.93;5.45;;;;;;;3.19;100.00;102417.84;5070321;28;20105;-73
2024/01/29 00:12:25;;;;;;;10.95;5.22;;;;;;;3.16;100.00;102415.44;5070303;28;20052;-73
2024/01/29 00:14:50;;;;;;;14.45;6.80;;;;;;;3.21;100.00;102428.31;5070233;28;20029;-73
2024/01/29 00:17:16;;;;;;;10.43;6.22;;;;;;;3.20;100.00;102431.91;5071273;28;20058;-73
2024/01/29 00:19:41;;;;;;;10.55;5.28;;;;;;;3.17;100.00;102426.81;5071420;28;20081;-73
2024/01/29 00:22:06;;;;;;;12.07;5.18;;;;;;;3.05;100.00;102408.31;5071416;28;20547;-73
2024/01/29 00:24:32;;;;;;;12.60;6.25;;;;;;;3.08;100.00;102418.63;5069988;28;20039;-74
2024/01/29 00:26:57;;;;;;;10.05;5.60;;;;;;;3.05;100.00;102410.09;5053189;28;20078;-73
2024/01/29 00:29:22;;;;;;;11.35;6.05;;;;;;;2.97;100.00;102409.81;5069764;28;20084;-73
2024/01/29 00:31:48;;;;;;;12.70;6.30;;;;;;;3.02;100.00;102423.50;5071185;28;20088;-73
2024/01/29 00:34:13;;;;;;;12.50;5.60;;;;;;;2.93;100.00;102430.25;5071091;28;20059;-74
2024/01/29 00:36:38;;;;;;;13.48;5.85;;;;;;;2.91;100.00;102431.31;5070872;28;20033;-73
2024/01/29 00:39:08;;;;;;;11.63;6.38;;;;;;;2.90;100.00;102424.38;5069681;28;20043;-74
2024/01/29 00:41:34;;;;;;;11.90;6.35;;;;;;;2.86;100.00;102423.75;5069811;28;20111;-74
2024/01/29 00:43:59;;;;;;;13.45;6.57;;;;;;;2.84;100.00;102425.63;5071104;28;20115;-74
2024/01/29 00:46:24;;;;;;;13.60;6.07;;;;;;;2.83;100.00;102424.81;5070524;28;20053;-74
2024/01/29 00:48:50;;;;;;;11.60;5.70;;;;;;;2.79;100.00;102418.03;5069460;28;20090;-74
2024/01/29 00:51:16;;;;;;;11.32;6.50;;;;;;;2.71;100.00;102406.38;5053079;28;20097;-73
2024/01/29 00:53:41;;;;;;;13.57;6.93;;;;;;;2.83;100.00;102418.69;5069572;28;20066;-73
2024/01/29 00:56:07;;;;;;;12.13;5.85;;;;;;;2.87;100.00;102420.16;5070565;28;20082;-74
2024/01/29 00:58:32;;;;;;;14.95;6.78;;;;;;;2.83;100.00;102410.78;5070626;28;20036;-74
2024/01/29 01:00:57;;;;;;;11.50;5.82;;;;;;;2.88;100.00;102407.81;5070032;28;20086;-73
2024/01/29 01:03:23;;;;;;;13.55;7.25;;;;;;;2.88;100.00;102411.28;5070584;28;20024;-73
2024/01/29 01:05:48;;;;;;;13.95;7.75;;;;;;;2.84;100.00;102423.00;5052610;28;20483;-74
2024/01/29 01:08:14;;;;;;;8.40;4.90;;;;;;;2.82;100.00;102427.53;5069269;28;20034;-74
2024/01/29 01:10:39;;;;;;;12.55;6.00;;;;;;;2.75;100.00;102434.16;5070260;28;20107;-74
2024/01/29 01:13:05;;;;;;;14.52;5.93;;;;;;;2.78;100.00;102436.63;5070485;28;20064;-74
2024/01/29 01:15:30;;;;;;;12.77;5.85;;;;;;;2.76;100.00;102439.34;5070229;28;20120;-73
2024/01/29 01:17:56;;;;;;;11.10;5.75;;;;;;;2.68;100.00;102432.94;5070358;28;20028;-73
2024/01/29 01:20:23;;;;;;;10.73;5.85;;;;;;;2.62;100.00;102455.28;5068811;28;20059;-74
2024/01/29 01:22:49;;;;;;;14.13;6.93;;;;;;;2.47;100.00;102451.03;5070091;28;20035;-74
2024/01/29 01:25:14;;;;;;;11.73;5.93;;;;;;;2.35;100.00;102450.06;5068927;28;20024;-73
2024/01/29 01:27:39;;;;;;;13.48;6.00;;;;;;;2.25;100.00;102455.09;5070290;28;20078;-74
2024/01/29 01:30:06;;;;;;;10.70;6.22;;;;;;;2.12;100.00;102455.09;5070067;28;20483;-74
2024/01/29 01:32:31;;;;;;;12.48;5.40;;;;;;;2.17;100.00;102460.91;5070011;28;21052;-73
2024/01/29 01:34:57;;;;;;;10.73;5.28;;;;;;;2.18;100.00;102453.84;5070028;28;20032;-74
2024/01/29 01:37:22;;;;;;;14.18;6.03;;;;;;;2.17;100.00;102455.63;5069776;28;20115;-73
2024/01/29 01:39:52;;;;;;;10.45;5.88;;;;;;;2.21;100.00;102447.53;5069916;28;20399;-74
2024/01/29 01:42:18;;;;;;;12.75;6.20;;;;;;;2.30;100.00;102446.91;5070036;28;20086;-74
2024/01/29 01:44:46;;;;;;;11.43;6.22;;;;;;;2.32;100.00;102447.66;5069792;28;20029;-73
2024/01/29 01:47:11;;;;;;;14.75;6.68;;;;;;;2.38;100.00;102448.09;5068206;28;20480;-74
2024/01/29 01:49:37;;;;;;;12.30;6.03;;;;;;;2.37;100.00;102446.38;5068606;28;20047;-74
2024/01/29 01:52:04;;;;;;;12.63;6.95;;;;;;;2.42;100.00;102451.34;5068482;28;20432;-73
2024/01/29 01:54:30;;;;;;;11.50;6.15;;;;;;;2.44;100.00;102465.25;5069523;28;20169;-73
2024/01/29 01:56:57;;;;;;;9.65;5.80;;;;;;;2.42;100.00;102452.19;5069850;28;20029;-74
2024/01/29 01:59:24;;;;;;;13.40;7.10;;;;;;;2.41;100.00;102453.16;5068356;28;20027;-74
2024/01/29 02:01:49;;;;;;;18.00;7.65;;;;;;;2.45;100.00;102456.41;5051792;28;20033;-74
2024/01/29 02:04:15;;;;;;;14.05;6.40;;;;;;;2.33;100.00;102444.91;5069594;28;20024;-74
2024/01/29 02:06:41;;;;;;;13.73;7.47;;;;;;;2.39;100.00;102449.75;5069653;28;20024;-74
2024/01/29 02:09:07;;;;;;;11.32;6.30;;;;;;;2.39;100.00;102456.81;5068291;28;20403;-73
2024/01/29 02:11:32;;;;;;;14.65;7.13;;;;;;;2.40;100.00;102453.22;5069550;28;20399;-73
2024/01/29 02:13:58;;;;;;;12.07;6.35;;;;;;;2.40;100.00;102443.53;5050651;28;20032;-74
2024/01/29 02:16:23;;;;;;;12.77;6.20;;;;;;;2.48;100.00;102450.91;5069468;28;20064;-73
2024/01/29 02:18:49;;;;;;;12.25;6.20;;;;;;;2.50;100.00;102454.31;5069533;28;20028;-74
2024/01/29 02:21:14;;;;;;;13.25;6.82;;;;;;;2.48;100.00;102440.38;5069617;28;20552;-74
2024/01/29 02:23:43;;;;;;;19.55;7.72;;;;;;;2.51;100.00;102445.44;5068277;28;20024;-74
2024/01/29 02:26:09;;;;;;;17.45;8.43;;;;;;;2.54;100.00;102444.38;5067939;28;20405;-74
2024/01/29 02:28:34;;;;;;;13.30;6.70;;;;;;;2.51;100.00;102447.25;5069170;28;20056;-74
2024/01/29 02:31:00;;;;;;;13.98;6.45;;;;;;;2.50;100.00;102443.75;5069360;28;20024;-74
2024/01/29 02:33:25;;;;;;;14.82;5.68;;;;;;;2.52;100.00;102454.22;5068205;28;20029;-74
2024/01/29 02:35:50;;;;;;;14.95;7.13;;;;;;;2.50;100.00;102450.81;5069398;28;20337;-73
2024/01/29 02:38:16;;;;;;;12.40;6.43;;;;;;;2.48;100.00;102436.91;5068257;28;20039;-74
2024/01/29 02:40:41;;;;;;;9.38;6.00;;;;;;;2.51;100.00;102444.59;5069348;28;20483;-73
2024/01/29 02:43:06;;;;;;;14.45;7.15;;;;;;;2.53;100.00;102440.91;5069161;28;20874;-74
2024/01/29 02:45:32;;;;;;;10.63;5.72;;;;;;;2.55;100.00;102446.94;5067602;28;20037;-74
2024/01/29 02:47:57;;;;;;;12.05;6.35;;;;;;;2.56;100.00;102442.50;5069305;28;20024;-73
2024/01/29 02:50:25;;;;;;;11.02;5.55;;;;;;;2.55;100.00;102443.47;5067864;28;20135;-73
2024/01/29 02:52:50;;;;;;;11.60;6.13;;;;;;;2.52;100.00;102441.03;5069256;28;20039;-73
2024/01/29 02:55:16;;;;;;;14.75;6.82;;;;;;;2.55;100.00;102443.47;5067927;28;20068;-73
2024/01/29 02:57:41;;;;;;;10.45;5.80;;;;;;;2.55;100.00;102441.66;5068880;28;20046;-73
2024/01/29 03:00:07;;;;;;;10.05;5.78;;;;;;;2.55;100.00;102433.75;5067780;28;20036;-74
2024/01/29 03:02:32;;;;;;;11.07;5.53;;;;;;;2.59;100.00;102429.97;5069129;28;20381;-74
2024/01/29 03:04:58;;;;;;;12.82;6.00;;;;;;;2.59;100.00;102434.38;5069025;28;20507;-74
2024/01/29 03:07:23;;;;;;;13.90;6.25;;;;;;;2.57;100.00;102445.03;5069007;28;20029;-73
2024/01/29 03:09:49;;;;;;;12.20;6.35;;;;;;;2.58;100.00;102438.81;5069039;28;20035;-73
2024/01/29 03:12:14;;;;;;;11.73;6.38;;;;;;;2.57;100.00;102447.69;5068828;28;20467;-74
2024/01/29 03:14:41;;;;;;;13.02;6.72;;;;;;;2.59;100.00;102440.53;5068997;28;20029;-74
2024/01/29 03:17:07;;;;;;;10.68;5.68;;;;;;;2.58;100.00;102436.19;5068710;28;20448;-74
2024/01/29 03:19:32;;;;;;;10.27;6.03;;;;;;;2.63;100.00;102447.25;5067711;28;20115;-74
2024/01/29 03:21:57;;;;;;;9.80;5.63;;;;;;;2.63;100.00;102439.34;5068873;28;20024;-74
2024/01/29 03:24:23;;;;;;;13.00;6.28;;;;;;;2.62;100.00;102442.09;5068927;28;20028;-74
2024/01/29 03:26:48;;;;;;;14.50;7.35;;;;;;;2.53;100.00;102427.75;5071134;28;20093;-74
2024/01/29 03:29:13;;;;;;;14.90;7.38;;;;;;;2.58;100.00;102435.34;5054649;28;20063;-75
2024/01/29 03:31:38;;;;;;;10.60;5.57;;;;;;;2.61;100.00;102443.88;5054181;28;20123;-74
2024/01/29 03:34:04;;;;;;;10.73;5.43;;;;;;;2.61;100.00;102435.97;5072197;28;20039;-74
2024/01/29 03:36:29;;;;;;;11.82;6.20;;;;;;;2.62;100.00;102447.38;5070936;28;20471;-75
2024/01/29 03:38:55;;;;;;;12.20;6.35;;;;;;;2.58;100.00;102440.63;5072178;28;20068;-75
2024/01/29 03:41:20;;;;;;;13.95;6.75;;;;;;;2.66;100.00;102450.63;5072203;28;20025;-75
2024/01/29 03:43:45;;;;;;;12.07;6.18;;;;;;;2.68;100.00;102451.38;5072133;28;20032;-75
2024/01/29 03:46:11;;;;;;;11.48;5.90;;;;;;;2.68;100.00;102457.47;5070656;28;20059;-75
2024/01/29 03:48:36;;;;;;;12.43;5.25;;;;;;;2.63;100.00;102451.69;5070821;28;20072;-75
2024/01/29 03:51:01;;;;;;;9.63;5.13;;;;;;;2.58;100.00;102457.25;5071957;28;20032;-75
2024/01/29 03:53:27;;;;;;;16.10;6.13;;;;;;;2.54;100.00;102466.31;5071877;28;20036;-75
2024/01/29 03:55:52;;;;;;;13.15;5.97;;;;;;;2.48;100.00;102463.25;5070464;28;20024;-75
2024/01/29 03:58:19;;;;;;;13.20;6.07;;;;;;;2.39;100.00;102459.47;5071909;28;20028;-75
2024/01/29 04:00:44;;;;;;;11.40;6.07;;;;;;;2.31;100.00;102464.41;5070631;28;20048;-75
2024/01/29 04:03:10;;;;;;;14.07;6.22;;;;;;;2.20;100.00;102462.47;5070394;28;20056;-74
2024/01/29 04:05:35;;;;;;;12.93;6.13;;;;;;;2.05;100.00;102464.34;5070438;28;20495;-75
2024/01/29 04:08:01;;;;;;;11.40;5.68;;;;;;;2.05;100.00;102453.81;5070420;28;20024;-74
2024/01/29 04:10:27;;;;;;;13.90;6.60;;;;;;;2.06;100.00;102458.13;5070417;28;20557;-75
2024/01/29 04:12:52;;;;;;;12.57;5.57;;;;;;;2.05;100.00;102450.34;5070365;28;20068;-74
2024/01/29 04:15:17;;;;;;;12.02;6.05;;;;;;;2.03;100.00;102453.06;5070204;28;20392;-74
2024/01/29 04:17:43;;;;;;;14.50;6.80;;;;;;;2.07;100.00;102449.28;5070183;28;20396;-74
2024/01/29 04:20:09;;;;;;;14.13;6.32;;;;;;;2.06;100.00;102454.66;5069989;28;20024;-73
2024/01/29 04:22:34;;;;;;;12.95;5.90;;;;;;;2.09;100.00;102459.69;5070056;28;20031;-74
2024/01/29 04:25:02;;;;;;;13.32;6.47;;;;;;;2.11;100.00;102460.44;5053312;28;20697;-74
2024/01/29 04:27:27;;;;;;;13.88;6.93;;;;;;;2.15;100.00;102454.88;5071538;28;20052;-83
2024/01/29 04:29:53;;;;;;;11.73;5.97;;;;;;;2.19;100.00;102466.03;5072729;28;20468;-83
2024/01/29 04:32:18;;;;;;;13.82;7.20;;;;;;;2.21;100.00;102458.06;5072852;28;20463;-83
2024/01/29 04:34:43;;;;;;;14.45;7.15;;;;;;;2.18;100.00;102465.22;5072719;28;20033;-83
2024/01/29 04:37:09;;;;;;;14.27;6.30;;;;;;;2.11;100.00;102463.91;5070317;28;20028;-83
2024/01/29 04:39:37;;;;;;;13.25;6.80;;;;;;;2.16;100.00;102472.34;5071972;28;20035;-83
2024/01/29 04:42:03;;;;;;;11.70;6.30;;;;;;;2.12;100.00;102464.75;5070914;28;20016;-83
2024/01/29 04:44:28;;;;;;;14.73;7.68;;;;;;;2.21;100.00;102468.59;5072425;28;20892;-83
2024/01/29 04:46:54;;;;;;;14.18;6.15;;;;;;;2.24;100.00;102471.00;5072212;28;20114;-83
2024/01/29 04:49:19;;;;;;;11.13;6.85;;;;;;;2.27;100.00;102463.75;5072293;28;20541;-83
2024/01/29 04:51:44;;;;;;;13.32;6.90;;;;;;;2.33;100.00;102467.75;5072486;28;20029;-83
2024/01/29 04:54:10;;;;;;;16.52;7.03;;;;;;;2.36;100.00;102468.41;5071896;28;20033;-83
2024/01/29 04:56:35;;;;;;;13.25;5.78;;;;;;;2.34;100.00;102465.03;5072001;28;20086;-83
2024/01/29 04:59:01;;;;;;;14.32;5.80;;;;;;;2.34;100.00;102467.66;5072225;28;20149;-85
2024/01/29 05:01:26;;;;;;;9.95;6.30;;;;;;;2.33;100.00;102468.63;5070763;28;20074;-83
2024/01/29 05:03:53;;;;;;;13.02;6.70;;;;;;;2.31;100.00;102465.25;5072094;28;20430;-83
2024/01/29 05:06:19;;;;;;;14.25;6.78;;;;;;;2.34;100.00;102470.28;5071986;28;20036;-83
2024/01/29 05:08:44;;;;;;;12.05;6.82;;;;;;;2.34;100.00;102470.28;5072029;28;20032;-83
2024/01/29 05:11:09;;;;;;;14.35;7.10;;;;;;;2.33;100.00;102468.63;5071815;28;20067;-83
2024/01/29 05:13:34;;;;;;;15.35;6.43;;;;;;;2.34;100.00;102467.66;5071886;28;20028;-83
2024/01/29 05:16:00;;;;;;;12.23;6.75;;;;;;;2.29;100.00;102463.66;5071796;28;20472;-84
2024/01/29 05:18:25;;;;;;;13.15;6.00;;;;;;;2.31;100.00;102462.59;5071929;28;20082;-84
2024/01/29 05:20:51;;;;;;;15.15;6.25;;;;;;;2.31;100.00;102469.66;5071684;28;20035;-83
2024/01/29 05:23:16;;;;;;;13.45;6.38;;;;;;;2.28;100.00;102460.19;5070525;28;20031;-83
2024/01/29 05:25:41;;;;;;;10.52;5.85;;;;;;;2.27;100.00;102455.84;5071635;28;20025;-83
2024/01/29 05:28:07;;;;;;;12.50;6.03;;;;;;;2.21;100.00;102444.91;5071613;28;20028;-83
2024/01/29 05:30:32;;;;;;;13.65;7.15;;;;;;;2.27;100.00;102466.38;5071538;28;20511;-83
2024/01/29 05:32:57;;;;;;;10.88;7.00;;;;;;;2.29;100.00;102472.38;5071436;28;20037;-83
2024/01/29 05:35:23;;;;;;;16.80;8.82;;;;;;;2.23;100.00;102462.28;5071442;28;20077;-84
2024/01/29 05:37:48;;;;;;;16.42;6.35;;;;;;;2.27;100.00;102461.09;5069937;28;20049;-83
2024/01/29 05:40:14;;;;;;;11.38;6.32;;;;;;;2.32;100.00;102466.06;5071320;28;20036;-82
2024/01/29 05:42:39;;;;;;;11.23;6.38;;;;;;;2.33;100.00;102465.97;5071298;28;20025;-83
2024/01/29 05:45:05;;;;;;;13.25;6.88;;;;;;;2.34;100.00;102464.19;5071378;28;20029;-83
2024/01/29 05:47:30;;;;;;;12.05;6.43;;;;;;;2.36;100.00;102468.41;5070849;28;20068;-83
2024/01/29 05:49:56;;;;;;;17.38;6.60;;;;;;;2.33;100.00;102465.97;5071187;28;20086;-83
2024/01/29 05:52:21;;;;;;;13.98;6.78;;;;;;;2.35;100.00;102473.75;5071273;28;20035;-83
2024/01/29 05:54:47;;;;;;;12.82;5.80;;;;;;;2.37;100.00;102469.25;5071279;28;20942;-83
2024/01/29 05:57:12;;;;;;;13.00;6.53;;;;;;;2.36;100.00;102486.84;5069658;28;20095;-83
2024/01/29 05:59:41;;;;;;;14.35;7.82;;;;;;;2.38;100.00;102477.06;5071151;28;20040;-83
2024/01/29 06:02:07;;;;;;;14.98;7.45;;;;;;;2.42;100.00;102491.69;5070860;28;20059;-83
2024/01/29 06:04:32;;;;;;;13.85;6.40;;;;;;;2.48;100.00;102481.69;5071138;28;20446;-83
2024/01/29 06:06:58;;;;;;;14.40;6.35;;;;;;;2.47;100.00;102488.75;5071076;28;20557;-83
2024/01/29 06:09:23;;;;;;;12.20;6.57;;;;;;;2.47;100.00;102491.38;5071084;28;20039;-83
2024/01/29 06:11:53;;;;;;;16.02;6.15;;;;;;;2.55;100.00;102488.22;5069695;28;20102;-83
2024/01/29 06:14:18;;;;;;;14.88;7.05;;;;;;;2.50;100.00;102487.69;5070913;28;20360;-83
2024/01/29 06:16:44;;;;;;;11.38;6.07;;;;;;;2.49;100.00;102486.88;5069720;28;20040;-83
2024/01/29 06:19:14;;;;;;;15.98;7.25;;;;;;;2.51;100.00;102478.84;5070920;28;20370;-83
2024/01/29 06:21:40;;;;;;;12.80;6.00;;;;;;;2.54;100.00;102492.66;5070969;28;20036;-83
2024/01/29 06:24:05;;;;;;;13.90;6.47;;;;;;;2.54;100.00;102486.53;5070968;28;20043;-83
2024/01/29 06:26:31;;;;;;;13.18;6.10;;;;;;;2.56;100.00;102496.00;5070920;28;20028;-83
2024/01/29 06:28:56;;;;;;;14.90;7.55;;;;;;;2.52;100.00;102483.19;5070961;28;20037;-83
2024/01/29 06:31:21;;;;;;;13.13;7.38;;;;;;;2.58;100.00;102485.38;5069627;28;20059;-83
2024/01/29 06:33:47;;;;;;;15.05;8.05;;;;;;;2.55;100.00;102478.53;5070927;28;20368;-83
2024/01/29 06:36:15;;;;;;;18.05;8.02;;;;;;;2.60;100.00;102488.75;5069983;28;20029;-74
2024/01/29 06:38:41;;;;;;;13.77;6.93;;;;;;;2.60;100.00;102483.50;5069346;28;20036;-74
2024/01/29 06:41:06;;;;;;;14.75;6.63;;;;;;;2.63;100.00;102497.28;5067976;28;20028;-74
2024/01/29 06:43:31;;;;;;;14.85;6.43;;;;;;;2.66;100.00;102490.13;5067860;28;20046;-73
2024/01/29 06:45:57;;;;;;;13.23;6.22;;;;;;;2.70;100.00;102489.81;5067709;28;20056;-74
2024/01/29 06:48:22;;;;;;;13.20;6.18;;;;;;;2.71;100.00;102490.66;5069341;28;20045;-74
2024/01/29 06:50:48;;;;;;;13.25;5.75;;;;;;;2.72;100.00;102501.09;5069244;28;20565;-74
2024/01/29 06:53:13;;;;;;;11.57;6.00;;;;;;;2.72;100.00;102494.97;5069254;28;20040;-74
2024/01/29 06:55:39;;;;;;;13.13;6.53;;;;;;;2.67;100.00;102490.00;5067921;28;20043;-74
2024/01/29 06:58:04;;;;;;;14.90;6.05;;;;;;;2.75;100.00;102505.28;5069049;28;20043;-73
2024/01/29 07:00:29;;;;;;;12.98;6.20;;;;;;;2.78;100.00;102498.06;5072219;28;20033;-74
2024/01/29 07:02:55;;;;;;;12.13;5.82;;;;;;;2.81;100.00;102502.25;5071642;28;20392;-74
2024/01/29 07:05:20;;;;;;;12.07;5.65;;;;;;;2.85;100.00;102499.28;5071578;28;20391;-74
2024/01/29 07:07:45;;;;;;;11.38;5.53;;;;;;;2.87;100.00;102503.63;5071537;28;20361;-74
2024/01/29 07:10:11;;;;;;;13.93;6.75;;;;;;;2.84;100.00;102509.94;5072655;28;20460;-74
2024/01/29 07:12:36;;;;;;;9.32;4.40;;;;;;;2.87;100.00;102516.81;5071504;28;20458;-74
2024/01/29 07:15:02;;;;;;;12.10;5.53;;;;;;;2.83;100.00;102518.81;5072709;28;20043;-74
2024/01/29 07:17:27;;;;;;;11.52;6.75;;;;;;;2.85;100.00;102525.63;5071404;28;20119;-74
2024/01/29 07:19:53;;;;;;;11.95;5.55;;;;;;;2.86;100.00;102523.88;5072595;28;20578;-73
2024/01/29 07:22:19;;;;;;;12.20;5.68;;;;;;;2.89;100.00;102531.56;5071762;28;20093;-74
2024/01/29 07:24:51;;;;;;;10.45;5.45;;;;;;;2.92;100.00;102531.34;5071520;28;20031;-74
2024/01/29 07:27:17;;;;;;;14.45;6.00;;;;;;;2.95;100.00;102539.03;5071738;28;20472;-73
2024/01/29 07:29:42;;;;;;;12.88;6.20;;;;;;;2.98;100.00;102546.72;5072220;28;20040;-73
2024/01/29 07:32:08;;;;;;;11.68;6.43;;;;;;;3.02;100.00;102547.38;5070831;28;20028;-73
2024/01/29 07:34:34;;;;;;;10.05;5.45;;;;;;;3.05;100.00;102549.81;5072290;28;20035;-73
2024/01/29 07:36:59;;;;;;;10.68;6.28;;;;;;;3.10;100.00;102547.69;5071124;28;20547;-73
2024/01/29 07:39:25;;;;;;;13.65;6.03;;;;;;;3.14;100.00;102540.41;5072207;28;20048;-73
2024/01/29 07:41:51;;;;;;;12.93;6.30;;;;;;;3.14;100.00;102527.22;5070860;28;20063;-73
2024/01/29 07:44:17;;;;;;;11.05;6.00;;;;;;;3.28;100.00;102553.50;5072012;28;20396;-73
2024/01/29 07:46:42;;;;;;;9.65;5.57;;;;;;;3.33;100.00;102548.75;5070597;28;20407;-73
2024/01/29 07:49:08;;;;;;;13.18;5.63;;;;;;;3.42;100.00;102552.53;5072102;28;20028;-73
2024/01/29 07:51:33;;;;;;;10.95;5.15;;;;;;;3.44;100.00;102551.47;5071867;28;20024;-72
2024/01/29 07:53:59;;;;;;;13.98;6.80;;;;;;;3.57;100.00;102563.78;5071709;28;20025;-72
2024/01/29 07:56:25;;;;;;;13.48;6.30;;;;;;;3.62;100.00;102554.59;5071894;28;20063;-73
2024/01/29 07:58:51;;;;;;;13.20;5.97;;;;;;;3.67;100.00;102562.19;5071836;28;20360;-73
2024/01/29 08:01:16;;;;;;;11.70;5.82;;;;;;;3.74;100.00;102558.97;5071865;28;20028;-72
2024/01/29 08:03:43;;;;;;;11.20;5.68;;;;;;;3.80;100.00;102559.50;5071841;28;20111;-72
2024/01/29 08:06:08;;;;;;;11.18;6.05;;;;;;;3.82;100.00;102553.16;5071609;28;20082;-73
2024/01/29 08:08:36;;;;;;;12.23;6.00;;;;;;;3.85;100.00;102545.03;5071757;28;20040;-73
2024/01/29 08:11:02;;;;;;;10.02;4.90;;;;;;;3.93;100.00;102566.44;5071469;28;20449;-73
2024/01/29 08:13:27;;;;;;;15.93;6.43;;;;;;;4.00;100.00;102555.44;5070615;28;20090;-72
2024/01/29 08:15:53;;;;;;;15.80;6.70;;;;;;;4.00;100.00;102545.69;5052264;28;20130;-73
2024/01/29 08:18:19;;;;;;;9.77;4.68;;;;;;;4.11;100.00;102558.13;5069503;28;20029;-73
2024/01/29 08:20:44;;;;;;;11.95;5.15;;;;;;;4.12;100.00;102542.19;5069466;28;20036;-72
2024/01/29 08:23:10;;;;;;;8.63;5.03;;;;;;;4.27;100.00;102555.19;5069515;28;20198;-72
2024/01/29 08:25:36;;;;;;;10.38;5.40;;;;;;;4.28;100.00;102555.09;5069195;28;20035;-72
2024/01/29 08:28:01;;;;;;;9.85;5.40;;;;;;;4.41;100.00;102562.97;5050918;28;20110;-72
2024/01/29 08:30:26;;;;;;;10.43;4.90;;;;;;;4.49;100.00;102567.66;5069139;28;20048;-72
2024/01/29 08:32:52;;;;;;;12.20;5.55;;;;;;;4.46;100.00;102558.19;5068924;28;20059;-72
2024/01/29 08:35:17;;;;;;;11.10;5.80;;;;;;;4.61;100.00;102572.00;5051055;28;20040;-73
2024/01/29 08:37:43;;;;;;;10.55;5.80;;;;;;;4.66;100.00;102571.69;5067711;28;20040;-70
2024/01/29 08:40:08;;;;;;;9.48;4.25;;;;;;;4.70;100.00;102566.06;5068929;28;20033;-71
2024/01/29 08:42:34;;;;;;;11.85;7.18;;;;;;;4.76;100.00;102576.16;5068763;28;20037;-71
2024/01/29 08:45:00;;;;;;;15.27;6.35;;;;;;;4.76;100.00;102567.38;5068992;28;20036;-71
2024/01/29 08:47:25;;;;;;;12.23;5.78;;;;;;;4.88;100.00;102574.41;5068905;28;20048;-71
2024/01/29 08:49:51;;;;;;;11.20;5.82;;;;;;;4.96;100.00;102576.47;5068608;28;20020;-71
2024/01/29 08:52:17;;;;;;;11.88;5.30;;;;;;;5.04;100.00;102571.41;5068627;28;20059;-72
2024/01/29 08:54:44;;;;;;;9.98;4.95;;;;;;;5.10;100.00;102568.28;5068788;28;20997;-71
2024/01/29 08:57:09;;;;;;;10.57;5.43;;;;;;;5.16;100.00;102562.56;5068909;28;20617;-71
2024/01/29 08:59:35;;;;;;;12.52;5.18;;;;;;;5.23;100.00;102555.81;5068898;28;20032;-72
2024/01/29 09:02:00;;;;;;;11.60;5.95;;;;;;;5.30;100.00;102565.94;5068771;28;20103;-72
2024/01/29 09:04:26;;;;;;;9.32;5.28;;;;;;;5.38;100.00;102566.16;5068159;28;20161;-72
2024/01/29 09:06:52;;;;;;;10.65;5.30;;;;;;;5.43;100.00;102564.84;5068719;28;20507;-71
2024/01/29 09:09:17;;;;;;;10.68;5.65;;;;;;;5.48;100.00;102560.03;5068844;28;20093;-71
2024/01/29 09:11:43;;;;;;;13.80;5.75;;;;;;;5.52;100.00;102555.31;5068722;28;20404;-71
2024/01/29 09:14:08;;;;;;;12.63;5.75;;;;;;;5.59;100.00;102561.81;5066981;28;20024;-71
2024/01/29 09:16:34;;;;;;;11.60;6.03;;;;;;;5.57;100.00;102553.16;5068606;28;20552;-72
2024/01/29 09:18:59;;;;;;;11.52;6.40;;;;;;;5.63;100.00;102557.09;5067792;28;20436;-71
2024/01/29 09:21:25;;;;;;;11.15;5.57;;;;;;;5.63;100.00;102557.09;5068274;28;20029;-71
2024/01/29 09:23:51;;;;;;;11.90;6.13;;;;;;;5.66;100.00;102563.03;5068130;28;20028;-71
2024/01/29 09:26:16;;;;;;;16.45;6.30;;;;;;;5.68;100.00;102557.59;5068192;28;20051;-71
2024/01/29 09:28:43;;;;;;;13.63;6.55;;;;;;;5.68;100.00;102558.44;5070162;28;20024;-71
2024/01/29 09:31:09;;;;;;;9.85;5.25;;;;;;;5.71;100.00;102566.16;5070000;28;20024;-71
2024/01/29 09:33:34;;;;;;;10.30;5.45;;;;;;;5.74;100.00;102559.78;5069943;28;20032;-71
2024/01/29 09:36:00;;;;;;;10.50;5.50;;;;;;;5.77;100.00;102564.81;5068672;28;20396;-70
2024/01/29 09:38:25;;;;;;;11.32;6.25;;;;;;;5.78;100.00;102563.84;5069902;28;20082;-71
2024/01/29 09:40:51;;;;;;;13.32;6.53;;;;;;;5.81;100.00;102560.94;5070004;28;20047;-71
2024/01/29 09:43:21;;;;;;;11.88;7.20;;;;;;;5.90;100.00;102565.50;5068569;28;20060;-71
2024/01/29 09:45:50;;;;;;;13.35;5.88;;;;;;;5.94;100.00;102566.13;5068491;28;20074;-71
2024/01/29 09:48:16;;;;;;;11.88;5.55;;;;;;;6.03;100.00;102577.81;5069836;28;20361;-71
2024/01/29 09:50:44;;;;;;;10.32;5.00;;;;;;;6.11;100.00;102583.31;5069705;28;20104;-71
2024/01/29 09:53:11;;;;;;;12.45;5.53;;;;;;;6.20;100.00;102582.56;5069863;28;20119;-71
2024/01/29 09:55:37;;;;;;;11.20;5.47;;;;;;;6.29;100.00;102589.75;5068329;28;20035;-71
2024/01/29 09:58:03;;;;;;;10.02;5.13;;;;;;;6.36;100.00;102592.72;5068254;28;20052;-71
2024/01/29 10:00:28;;;;;;;10.70;5.15;;;;;;;6.43;100.00;102591.28;5068372;28;20059;-71
2024/01/29 10:02:56;;;;;;;10.02;5.15;;;;;;;6.52;100.00;102594.97;5069541;28;20432;-71
2024/01/29 10:05:26;;;;;;;9.18;5.80;;;;;;;6.61;100.00;102586.25;5068328;28;20033;-71
2024/01/29 10:07:53;;;;;;;11.55;5.07;;;;;;;6.69;100.00;102586.47;5069609;28;20028;-71
2024/01/29 10:10:19;;;;;;;11.52;5.60;;;;;;;6.77;100.00;102599.06;5068429;28;20025;-71
2024/01/29 10:12:44;;;;;;;11.30;5.40;;;;;;;6.83;100.00;102598.56;5069472;28;20502;-71
2024/01/29 10:15:13;;;;;;;10.38;4.90;;;;;;;6.91;100.00;102601.41;5068100;28;20078;-71
2024/01/29 10:17:38;;;;;;;10.68;5.00;;;;;;;7.01;100.00;102601.47;5068088;28;20060;-71
2024/01/29 10:20:04;;;;;;;12.35;5.90;;;;;;;7.08;100.00;102605.28;5068026;28;20071;-71
2024/01/29 10:22:29;;;;;;;13.43;6.13;;;;;;;7.20;100.00;102609.56;5068131;28;20044;-71
2024/01/29 10:25:04;;;;;;;12.65;5.95;;;;;;;7.25;100.00;102595.88;5069505;28;20027;-71
2024/01/29 10:27:30;;;;;;;12.25;6.50;;;;;;;7.40;100.00;102604.34;5069328;28;20105;-71
2024/01/29 10:29:56;;;;;;;12.38;5.75;;;;;;;7.48;100.00;102612.47;5069482;28;20475;-71
2024/01/29 10:32:21;;;;;;;11.38;5.85;;;;;;;7.49;100.00;102608.84;5069405;28;20119;-71
2024/01/29 10:34:48;;;;;;;12.82;5.93;;;;;;;7.57;100.00;102610.84;5071511;28;20078;-73
2024/01/29 10:37:15;;;;;;;13.38;6.15;;;;;;;7.64;100.00;102610.16;5072047;28;20039;-71
2024/01/29 10:39:41;;;;;;;10.82;5.15;;;;;;;7.73;100.00;102607.69;5073306;28;20075;-71
2024/01/29 10:42:11;;;;;;;12.23;6.40;;;;;;;7.78;100.00;102608.13;5071853;28;20081;-72
2024/01/29 10:44:41;;;;;;;12.77;6.65;;;;;;;7.83;100.00;102603.25;5073219;28;20082;-71
2024/01/29 10:47:17;;;;;;;13.35;5.70;;;;;;;7.89;100.00;102613.34;5073152;28;20044;-71
2024/01/29 10:49:44;;;;;;;13.98;6.53;;;;;;;7.97;100.00;102608.19;5073260;28;20029;-71
2024/01/29 10:52:11;;;;;;;13.00;6.60;;;;;;;8.04;100.00;102605.81;5073083;28;20029;-71
2024/01/29 10:54:38;;;;;;;14.32;5.80;;;;;;;8.08;100.00;102600.09;5071792;28;20033;-71
2024/01/29 10:57:09;;;;;;;12.60;6.07;;;;;;;8.17;100.00;102610.88;5072821;28;20047;-71
2024/01/29 10:59:36;;;;;;;15.88;6.35;;;;;;;8.19;100.00;102612.41;5073019;28;20078;-71
2024/01/29 11:02:04;;;;;;;13.82;6.72;;;;;;;8.21;100.00;102610.47;5055196;28;20456;-71
2024/01/29 11:04:30;;;;;;;12.95;6.05;;;;;;;8.29;100.00;102615.94;5073010;28;20059;-71
2024/01/29 11:07:06;;;;;;;11.50;5.32;;;;;;;8.32;100.00;102609.50;5072769;28;20025;-71
2024/01/29 11:09:34;;;;;;;12.40;5.93;;;;;;;8.40;100.00;102615.00;5072858;28;20040;-71